Pitt Meadows, British Columbia

9:17 PM PST on January 30, 2015 (GMT -0800)
Pitt Meadows Chez Douglas | Change Station
CLOSE
Current Station
Personal Weather Station
Location: Pitt Meadows, BRITISH COLUMBIA
Elevation: 66 ft
Nearby Weather Stations

Elev 66 ft 49.22 °N, 122.69 °W | Updated 8 seconds ago

Clear
Clear
37.0 °F
Feels Like 37 °F
N
0.0
Wind Variable Wind from North

Today
High -- | Low -- °F
--% Chance of Precip.
Yesterday
High -- | Low -- °F
Precip. -- in
7:44 AM 5:03 PM
Waxing Gibbous, 87% visible
Pressure 30.27 in
Visibility 15.0 miles
Clouds Clear
Windchill 37 °F
Dew Point 36 °F
Humidity 97%
Rainfall 0.00 in
Snow Depth Not available.
UV 0 out of 12
Pollen Not available.
Air Quality Not available.
Flu Activity Not available.
METAR CYXX 310500Z 00000KT 15SM SKC 03/03 A3026 RMK SLP251

More Conditions Fewer Conditions

Pressure 30.27 in
Visibility 15.0 miles
Clouds Clear
Windchill 37 °F
Dew Point 36 °F
Humidity 97%
Rainfall 0.00 in
Snow Depth Not available.
UV 0 out of 12
Pollen Not available.
Air Quality Not available.
Flu Activity Not available.
METAR CYXX 310500Z 00000KT 15SM SKC 03/03 A3026 RMK SLP251

More Conditions Fewer Conditions

10-Day Weather Forecast

Almanac

Astronomy

Jan. 30, 2015 Rise Set
Actual Time
Civil Twilight
Nautical Twilight
Astronomical Twilight
Moon
Length of Visible Light
Length of Day
Tomorrow will be .
, % of the Moon is Illuminated

Today's Extremes

Country Highs Country Lows

Community

WunderPhotos

Upload Photos

1,792,005 photos uploaded!

WunderBlogs® & News

Nearby

Air Quality

  Air Quality AQ Index Pollutant
Not available.

Snow Depth

Station Depth Elevation

Earthquake Activity

City Distance Mag. Time & Date
Minimum magnitude displayed is 2.5.

Coastal Water Temperatures

Place Temperature

Nearby Weather Stations